Time;durP1;ratioP1;P1;durP2;ratioP2;P2;SDS_P1;SDS_P2;PMS_P1;PMS_P2;Temp;Humidity;BMP_temperature;BMP_pressure;BME280_temperature;BME280_humidity;BME280_pressure;Samples;Min_cycle;Max_cycle;Signal;HPM_P1;HPM_P2
2022/01/08 00:04:12;;;;;;;108.55;88.05;;;20.60;45.40;;;;;;4737595;59;21098;-36
2022/01/08 00:09:13;;;;;;;104.45;85.80;;;20.60;45.40;;;;;;4738758;55;21551;-36
2022/01/08 00:14:15;;;;;;;104.65;84.60;;;20.60;45.50;;;;;;4750422;55;21145;-36
2022/01/08 00:19:16;;;;;;;107.87;84.60;;;20.60;45.40;;;;;;4752988;55;21436;-35
2022/01/08 00:24:17;;;;;;;105.78;86.82;;;20.50;45.30;;;;;;4756939;55;21017;-34
2022/01/08 00:29:17;;;;;;;106.22;85.57;;;20.50;45.30;;;;;;4753451;55;21615;-36
2022/01/08 00:34:18;;;;;;;97.60;75.47;;;20.50;45.30;;;;;;4761102;55;21547;-35
2022/01/08 00:39:19;;;;;;;103.65;82.55;;;20.50;45.20;;;;;;4812599;55;21236;-36
2022/01/08 00:44:20;;;;;;;101.10;82.03;;;20.50;45.30;;;;;;4738212;59;21056;-30
2022/01/08 00:49:22;;;;;;;98.40;80.65;;;20.50;45.20;;;;;;4773093;55;21581;-35
2022/01/08 00:54:23;;;;;;;99.72;78.72;;;20.50;45.20;;;;;;4738993;55;21623;-35
2022/01/08 00:59:23;;;;;;;99.32;79.68;;;20.50;45.20;;;;;;4743045;55;21010;-37
2022/01/08 01:04:24;;;;;;;96.63;79.45;;;20.50;45.20;;;;;;4737806;59;21030;-36
2022/01/08 01:09:25;;;;;;;99.20;79.72;;;20.50;45.10;;;;;;4780895;55;22029;-35
2022/01/08 01:14:26;;;;;;;100.35;78.15;;;20.50;45.10;;;;;;4738743;59;21017;-28
2022/01/08 01:19:29;;;;;;;94.95;76.72;;;20.50;45.10;;;;;;4737949;55;21009;-35
2022/01/08 01:24:32;;;;;;;94.03;75.62;;;20.50;45.10;;;;;;4738255;59;21584;-33
2022/01/08 01:41:21;;;;;;;92.90;74.87;;;20.50;45.10;;;;;;4738277;55;21094;-34
2022/01/08 01:51:42;;;;;;;90.40;73.60;;;20.50;45.00;;;;;;4753303;55;21560;-26
2022/01/08 01:56:43;;;;;;;90.78;73.50;;;20.50;44.90;;;;;;4738501;59;21031;-30
2022/01/08 02:01:44;;;;;;;90.45;72.53;;;20.50;44.80;;;;;;4754196;55;21038;-37
2022/01/08 02:06:45;;;;;;;88.32;71.57;;;20.50;45.00;;;;;;4739529;55;22064;-34
2022/01/08 02:12:11;;;;;;;87.55;69.28;;;20.50;44.90;;;;;;4754574;55;21384;-32
2022/01/08 02:17:12;;;;;;;88.72;72.72;;;20.50;44.80;;;;;;4752272;55;21507;-35
2022/01/08 02:22:16;;;;;;;83.22;68.50;;;20.50;44.80;;;;;;4739629;55;21034;-30
2022/01/08 02:27:17;;;;;;;89.32;71.78;;;20.50;44.70;;;;;;4775865;55;21627;-33
2022/01/08 02:32:25;;;;;;;84.35;68.30;;;20.50;44.70;;;;;;4756299;55;21018;-34
2022/01/08 02:37:30;;;;;;;87.60;70.60;;;20.50;44.70;;;;;;4737640;59;21113;-33
2022/01/08 02:42:38;;;;;;;87.93;67.65;;;20.50;44.60;;;;;;4738842;59;21507;-33
2022/01/08 02:47:39;;;;;;;81.32;66.28;;;20.50;44.70;;;;;;4775840;55;21492;-35
2022/01/08 02:52:45;;;;;;;84.93;67.50;;;20.50;44.70;;;;;;4740318;55;21092;-34
2022/01/08 02:57:46;;;;;;;80.03;63.50;;;20.50;44.70;;;;;;4737909;59;21082;-33
2022/01/08 03:02:50;;;;;;;84.80;68.05;;;20.50;44.60;;;;;;4745002;55;21006;-30
2022/01/08 03:07:51;;;;;;;80.82;64.75;;;20.50;44.50;;;;;;4755705;55;21029;-34
2022/01/08 03:12:52;;;;;;;83.25;68.30;;;20.50;44.60;;;;;;4753654;55;21552;-33
2022/01/08 03:17:53;;;;;;;80.30;64.40;;;20.50;44.50;;;;;;4740741;55;21073;-34
2022/01/08 03:23:01;;;;;;;81.57;65.18;;;20.50;44.60;;;;;;4763084;55;21014;-36
2022/01/08 03:28:02;;;;;;;77.43;61.47;;;20.50;44.50;;;;;;4753992;55;21041;-34
2022/01/08 03:33:03;;;;;;;77.32;62.83;;;20.50;44.50;;;;;;4751798;55;21089;-34
2022/01/08 03:38:05;;;;;;;78.10;62.17;;;20.40;44.40;;;;;;4746814;55;21046;-34
2022/01/08 03:43:06;;;;;;;75.43;59.70;;;20.40;44.50;;;;;;4745097;55;21034;-32
2022/01/08 03:48:19;;;;;;;77.90;62.30;;;20.40;44.40;;;;;;4741197;55;21511;-34
2022/01/08 03:53:20;;;;;;;73.35;59.95;;;20.40;44.40;;;;;;4742179;55;21543;-35
2022/01/08 03:58:21;;;;;;;76.75;60.95;;;20.40;44.30;;;;;;4741126;55;21010;-34
2022/01/08 04:03:22;;;;;;;73.93;57.88;;;20.40;44.30;;;;;;4737778;59;21061;-35
2022/01/08 04:08:23;;;;;;;78.20;61.15;;;20.50;44.30;;;;;;4742277;55;21476;-33
2022/01/08 04:13:29;;;;;;;74.70;60.08;;;20.40;44.30;;;;;;4742861;55;21050;-32
2022/01/08 04:18:30;;;;;;;75.65;59.95;;;20.40;44.40;;;;;;4759506;55;21595;-31
2022/01/08 04:23:31;;;;;;;72.20;59.20;;;20.40;44.30;;;;;;4760557;55;21112;-33
2022/01/08 04:28:32;;;;;;;70.30;57.08;;;20.40;44.30;;;;;;4751676;55;21093;-34
2022/01/08 04:33:32;;;;;;;70.65;57.60;;;20.40;44.20;;;;;;4786338;55;21045;-34
2022/01/08 04:38:34;;;;;;;71.70;55.47;;;20.40;44.20;;;;;;4737761;59;21062;-33
2022/01/08 04:43:37;;;;;;;73.12;57.60;;;20.40;44.20;;;;;;4768144;55;21098;-30
2022/01/08 04:48:38;;;;;;;68.55;56.37;;;20.40;44.30;;;;;;4747611;55;21571;-32
2022/01/08 04:53:39;;;;;;;69.20;57.25;;;20.40;44.30;;;;;;4765180;55;21037;-35
2022/01/08 04:58:40;;;;;;;70.20;56.47;;;20.40;44.80;;;;;;4758225;55;21536;-33
2022/01/08 05:03:41;;;;;;;70.43;55.33;;;20.40;44.20;;;;;;4792943;55;21018;-33
2022/01/08 05:08:42;;;;;;;68.40;55.53;;;20.40;44.30;;;;;;4757732;55;21033;-34
2022/01/08 05:13:44;;;;;;;67.95;52.90;;;20.40;44.30;;;;;;4773188;55;21088;-34
2022/01/08 05:18:46;;;;;;;67.65;54.35;;;20.40;44.40;;;;;;4756680;55;21504;-35
2022/01/08 05:23:47;;;;;;;70.25;56.83;;;20.40;44.30;;;;;;4755802;55;21540;-34
2022/01/08 05:28:47;;;;;;;68.20;53.53;;;20.40;44.30;;;;;;4786088;55;21125;-35
2022/01/08 05:33:49;;;;;;;65.15;51.72;;;20.40;44.40;;;;;;4747467;55;21468;-34
2022/01/08 05:38:50;;;;;;;65.28;51.10;;;20.40;44.40;;;;;;4757149;55;21452;-36
2022/01/08 05:43:51;;;;;;;65.18;52.47;;;20.40;44.40;;;;;;4755355;55;21049;-35
2022/01/08 05:48:52;;;;;;;63.58;50.35;;;20.40;44.40;;;;;;4746759;55;21492;-35
2022/01/08 05:53:53;;;;;;;64.28;51.33;;;20.40;44.40;;;;;;4739249;55;21066;-36
2022/01/08 05:58:53;;;;;;;64.10;49.83;;;20.40;44.40;;;;;;4737392;59;20990;-32
2022/01/08 06:03:54;;;;;;;64.45;50.20;;;20.40;44.70;;;;;;4753595;55;21475;-34
2022/01/08 06:08:55;;;;;;;63.60;51.67;;;20.40;44.50;;;;;;4737201;59;21062;-33
2022/01/08 06:13:56;;;;;;;61.20;48.42;;;20.40;44.60;;;;;;4778435;55;21061;-30
2022/01/08 06:18:57;;;;;;;61.80;50.35;;;20.40;44.60;;;;;;4766376;55;21652;-35
2022/01/08 06:23:58;;;;;;;59.80;48.00;;;20.40;44.60;;;;;;4757098;55;21865;-34
2022/01/08 06:28:59;;;;;;;62.67;48.83;;;20.40;44.60;;;;;;4778396;55;21041;-32
2022/01/08 06:34:00;;;;;;;61.95;49.42;;;20.40;44.60;;;;;;4748340;55;22215;-31
2022/01/08 06:39:01;;;;;;;61.15;48.05;;;20.40;44.60;;;;;;4749061;55;21045;-33
2022/01/08 06:44:02;;;;;;;59.22;48.33;;;20.40;44.70;;;;;;4739829;55;22230;-37
2022/01/08 06:49:03;;;;;;;60.10;49.40;;;20.40;44.70;;;;;;4755293;55;21109;-35
2022/01/08 06:54:04;;;;;;;60.60;47.97;;;20.40;44.70;;;;;;4777296;55;21536;-35
2022/01/08 06:59:05;;;;;;;61.35;48.60;;;20.40;44.70;;;;;;4796625;55;21444;-32
2022/01/08 07:04:06;;;;;;;57.53;46.60;;;20.40;44.60;;;;;;4755625;55;21038;-35
2022/01/08 07:09:06;;;;;;;59.88;46.20;;;20.30;44.50;;;;;;4741195;55;21074;-34
2022/01/08 07:14:07;;;;;;;60.35;49.05;;;20.40;44.60;;;;;;4737942;59;21617;-35
2022/01/08 07:19:08;;;;;;;63.00;49.50;;;20.40;44.60;;;;;;4784823;55;21033;-35
2022/01/08 07:24:09;;;;;;;57.83;47.13;;;20.40;44.60;;;;;;4750941;55;21065;-34
2022/01/08 07:29:10;;;;;;;59.97;47.90;;;20.40;44.60;;;;;;4742500;55;21496;-32
2022/01/08 07:34:11;;;;;;;59.47;47.75;;;20.40;44.60;;;;;;4737960;59;21034;-30
2022/01/08 07:39:11;;;;;;;63.00;48.85;;;20.40;44.60;;;;;;4760351;55;21084;-32
2022/01/08 07:44:12;;;;;;;60.12;48.13;;;20.40;44.50;;;;;;4743663;55;21179;-33
2022/01/08 07:49:13;;;;;;;61.40;48.72;;;20.30;44.50;;;;;;4837692;55;21062;-37
2022/01/08 07:54:15;;;;;;;61.58;50.50;;;20.40;44.60;;;;;;4786782;55;21010;-35
2022/01/08 07:59:15;;;;;;;62.40;50.33;;;20.40;44.50;;;;;;4760800;55;20995;-28
2022/01/08 08:04:16;;;;;;;62.97;50.50;;;20.30;44.40;;;;;;4774301;55;21497;-34
2022/01/08 08:09:20;;;;;;;62.10;50.20;;;20.40;44.50;;;;;;4760006;55;21090;-33
2022/01/08 08:14:22;;;;;;;62.53;51.58;;;20.30;44.40;;;;;;4802438;55;21058;-36
2022/01/08 08:19:23;;;;;;;62.78;51.25;;;20.30;44.40;;;;;;4738043;59;21142;-34
2022/01/08 08:24:24;;;;;;;68.62;54.28;;;20.40;44.60;;;;;;4747323;55;21033;-34
2022/01/08 08:29:24;;;;;;;69.05;53.25;;;20.30;44.30;;;;;;4738183;55;21082;-35
2022/01/08 08:34:25;;;;;;;64.47;52.10;;;20.40;44.40;;;;;;4753132;55;21061;-35
2022/01/08 08:39:26;;;;;;;68.87;52.40;;;20.30;44.30;;;;;;4773709;55;21547;-31
2022/01/08 08:44:27;;;;;;;70.55;54.47;;;20.30;44.30;;;;;;4740469;55;21006;-33
2022/01/08 08:49:28;;;;;;;69.78;54.92;;;20.30;44.30;;;;;;4736720;59;21069;-34
2022/01/08 08:54:29;;;;;;;71.85;56.13;;;20.30;44.20;;;;;;4759665;55;21544;-34
2022/01/08 08:59:30;;;;;;;73.82;58.08;;;20.30;44.30;;;;;;4759177;55;21002;-30
2022/01/08 09:04:31;;;;;;;70.70;56.22;;;20.30;44.30;;;;;;4757833;55;21571;-33
2022/01/08 09:09:32;;;;;;;71.30;54.75;;;20.30;44.40;;;;;;4752873;55;21106;-33
2022/01/08 09:14:33;;;;;;;74.00;59.00;;;20.30;44.30;;;;;;4741072;55;21041;-33
2022/01/08 09:19:34;;;;;;;78.07;59.90;;;20.30;44.30;;;;;;4753421;55;21002;-33
2022/01/08 09:24:40;;;;;;;72.87;57.90;;;20.30;44.30;;;;;;4749883;55;21090;-34
2022/01/08 09:29:41;;;;;;;76.30;61.47;;;20.30;44.30;;;;;;4782966;55;21026;-32
2022/01/08 09:34:43;;;;;;;79.72;63.90;;;20.30;44.30;;;;;;4762062;55;21014;-35
2022/01/08 09:39:44;;;;;;;81.95;64.55;;;20.30;44.20;;;;;;4739868;55;21005;-33
2022/01/08 09:44:45;;;;;;;75.78;60.15;;;20.30;44.30;;;;;;4771864;55;21547;-35
2022/01/08 09:49:46;;;;;;;83.50;67.22;;;20.30;44.20;;;;;;4785235;55;21010;-36
2022/01/08 09:54:47;;;;;;;87.78;67.35;;;20.30;44.20;;;;;;4777406;55;21311;-35
2022/01/08 09:59:48;;;;;;;90.15;69.97;;;20.30;44.20;;;;;;4754846;55;21009;-35
2022/01/08 10:04:50;;;;;;;89.50;72.30;;;20.30;44.20;;;;;;4737112;59;21029;-35
2022/01/08 10:10:25;;;;;;;91.05;71.97;;;20.30;44.20;;;;;;4748792;55;21070;-36
2022/01/08 10:20:58;;;;;;;97.60;76.47;;;20.30;44.20;;;;;;4737892;55;21100;-35
2022/01/08 10:26:13;;;;;;;92.50;74.95;;;20.30;44.30;;;;;;4759036;55;21081;-39
2022/01/08 10:31:59;;;;;;;100.28;78.12;;;20.30;44.20;;;;;;4738506;56;21500;-36
2022/01/08 10:37:03;;;;;;;105.60;83.87;;;20.30;44.20;;;;;;4749527;55;20982;-37
2022/01/08 10:42:16;;;;;;;106.57;85.45;;;20.30;44.10;;;;;;4739163;55;21069;-35
2022/01/08 10:47:19;;;;;;;115.43;87.95;;;20.30;44.30;;;;;;4752759;55;21552;-36
2022/01/08 10:52:21;;;;;;;116.60;88.82;;;20.30;44.20;;;;;;4738807;55;21097;-36
2022/01/08 10:57:34;;;;;;;113.07;89.95;;;20.30;44.20;;;;;;4776445;55;21140;-34
2022/01/08 11:02:35;;;;;;;116.18;91.10;;;20.30;44.30;;;;;;4760358;55;20994;-33
2022/01/08 11:07:39;;;;;;;121.28;94.85;;;20.30;44.20;;;;;;4737343;59;21002;-33
2022/01/08 11:12:42;;;;;;;123.65;97.28;;;20.30;44.30;;;;;;4762509;55;21073;-36
2022/01/08 11:17:52;;;;;;;126.20;99.72;;;20.30;44.30;;;;;;4777120;55;21480;-36
2022/01/08 11:22:56;;;;;;;121.65;97.20;;;20.30;44.30;;;;;;4764651;55;21002;-36
2022/01/08 11:28:19;;;;;;;126.80;101.00;;;20.40;44.40;;;;;;4740902;55;21026;-27
2022/01/08 11:38:31;;;;;;;136.07;106.82;;;20.40;44.40;;;;;;4778284;55;21030;-36
2022/01/08 11:43:35;;;;;;;131.30;103.43;;;20.30;44.30;;;;;;4804884;55;21029;-36
2022/01/08 11:48:45;;;;;;;139.37;108.47;;;20.30;44.40;;;;;;4806271;55;21121;-34
2022/01/08 11:53:54;;;;;;;142.13;109.87;;;20.30;44.40;;;;;;4760218;55;20982;-35
2022/01/08 11:59:13;;;;;;;138.85;108.82;;;20.40;44.50;;;;;;4779066;55;21058;-36
2022/01/08 12:04:25;;;;;;;147.37;116.68;;;20.30;44.40;;;;;;4745770;55;21472;-33
2022/01/08 12:09:28;;;;;;;146.07;116.40;;;20.30;44.40;;;;;;4755546;55;21565;-33
2022/01/08 12:15:02;;;;;;;146.80;113.97;;;20.30;44.40;;;;;;4754913;55;21957;-35
2022/01/08 12:20:05;;;;;;;153.10;119.18;;;20.30;44.50;;;;;;4771960;55;21089;-33
2022/01/08 12:25:07;;;;;;;152.68;118.20;;;20.30;44.50;;;;;;4759855;55;20994;-33
2022/01/08 12:32:18;;;;;;;157.80;122.00;;;20.30;44.60;;;;;;4751438;55;21002;-37
2022/01/08 12:37:33;;;;;;;160.25;123.68;;;20.30;44.50;;;;;;4765978;55;21101;-34
2022/01/08 12:42:37;;;;;;;156.82;121.20;;;20.30;44.60;;;;;;4792241;55;21053;-33
2022/01/08 12:47:54;;;;;;;162.98;127.32;;;20.40;44.70;;;;;;4765266;55;21049;-34
2022/01/08 12:54:47;;;;;;;;;;;20.30;44.70;;;;;;4769909;55;21838;-35
2022/01/08 12:59:49;;;;;;;174.32;133.00;;;20.30;44.70;;;;;;4767931;55;20347;-36
2022/01/08 13:04:52;;;;;;;167.77;129.98;;;20.40;44.70;;;;;;4737870;59;21541;-35
2022/01/08 13:09:58;;;;;;;172.87;134.80;;;20.30;44.70;;;;;;4764912;55;21508;-34
2022/01/08 13:15:02;;;;;;;172.20;132.57;;;20.40;44.80;;;;;;4740429;55;21980;-36
2022/01/08 13:20:07;;;;;;;163.05;124.60;;;20.40;44.80;;;;;;4750004;55;21086;-34
2022/01/08 13:25:09;;;;;;;179.77;137.93;;;20.40;44.90;;;;;;4742595;55;20990;-37
2022/01/08 13:30:10;;;;;;;180.82;141.07;;;20.40;44.90;;;;;;4738955;59;21131;-34
2022/01/08 13:35:13;;;;;;;183.73;141.25;;;20.40;44.90;;;;;;4737926;59;21010;-36
2022/01/08 13:40:14;;;;;;;184.80;141.55;;;20.40;44.90;;;;;;4744306;55;21567;-34
2022/01/08 13:45:18;;;;;;;188.15;143.80;;;20.40;45.00;;;;;;4739205;55;21002;-35
2022/01/08 13:50:28;;;;;;;191.02;145.50;;;20.30;44.90;;;;;;4737882;59;21069;-34
2022/01/08 13:55:44;;;;;;;189.55;147.68;;;20.40;45.00;;;;;;4744838;55;21472;-36
2022/01/08 14:01:10;;;;;;;182.30;141.30;;;20.40;45.00;;;;;;4771669;55;22357;-33
2022/01/08 14:06:22;;;;;;;197.00;148.35;;;20.40;45.00;;;;;;4778731;55;21058;-27
2022/01/08 14:11:23;;;;;;;192.43;148.85;;;20.40;45.00;;;;;;4738399;55;21517;-38
2022/01/08 14:16:35;;;;;;;188.87;144.27;;;20.40;45.00;;;;;;4738176;59;21105;-33
2022/01/08 14:21:38;;;;;;;197.07;151.65;;;20.40;45.10;;;;;;4737941;55;21096;-35
2022/01/08 14:26:39;;;;;;;196.45;153.82;;;20.40;45.10;;;;;;4771360;55;21017;-28
2022/01/08 14:31:40;;;;;;;198.60;153.77;;;20.40;45.10;;;;;;4770896;55;21492;-35
2022/01/08 14:36:56;;;;;;;195.15;150.02;;;20.40;45.10;;;;;;4745722;55;21504;-35
2022/01/08 14:41:59;;;;;;;191.00;149.45;;;20.40;45.10;;;;;;4754682;55;21500;-37
2022/01/08 14:47:01;;;;;;;190.30;151.02;;;20.40;45.10;;;;;;4740416;55;21029;-35
2022/01/08 14:52:03;;;;;;;197.75;151.98;;;20.40;45.10;;;;;;4737540;59;21564;-35
2022/01/08 14:57:07;;;;;;;199.77;154.15;;;20.30;45.00;;;;;;4738428;59;21053;-35
2022/01/08 15:02:08;;;;;;;205.12;157.55;;;20.40;45.10;;;;;;4758725;55;20990;-35
2022/01/08 15:07:10;;;;;;;191.15;149.82;;;20.40;45.10;;;;;;4750851;55;20994;-33
2022/01/08 15:12:11;;;;;;;201.85;155.85;;;20.40;45.10;;;;;;4736639;59;21018;-31
2022/01/08 15:17:15;;;;;;;200.73;151.40;;;20.40;45.10;;;;;;4757727;55;21511;-33
2022/01/08 15:22:16;;;;;;;198.10;153.70;;;20.40;45.10;;;;;;4744069;55;22232;-33
2022/01/08 15:27:17;;;;;;;194.20;151.25;;;20.40;45.10;;;;;;4755952;55;21111;-36
2022/01/08 15:32:21;;;;;;;196.63;152.90;;;20.40;45.20;;;;;;4737477;59;22292;-35
2022/01/08 15:37:23;;;;;;;195.02;153.25;;;20.40;45.10;;;;;;4752249;55;21742;-35
2022/01/08 15:42:23;;;;;;;199.62;154.38;;;20.40;45.10;;;;;;4753565;55;21061;-36
2022/01/08 15:47:24;;;;;;;195.80;148.73;;;20.40;45.10;;;;;;4745256;55;20994;-28
2022/01/08 15:52:25;;;;;;;203.00;155.95;;;20.40;45.10;;;;;;4739484;55;21058;-36
2022/01/08 15:57:27;;;;;;;189.37;147.73;;;20.40;45.10;;;;;;4749224;55;21468;-36
2022/01/08 16:02:28;;;;;;;194.15;150.12;;;20.40;45.10;;;;;;4761928;55;21516;-34
2022/01/08 16:07:28;;;;;;;185.52;144.60;;;20.40;45.10;;;;;;4767858;55;21002;-35
2022/01/08 16:12:29;;;;;;;189.43;150.05;;;20.40;45.20;;;;;;4775899;55;21124;-36
2022/01/08 16:17:30;;;;;;;190.60;150.90;;;20.40;45.10;;;;;;4799447;55;21484;-34
2022/01/08 16:22:33;;;;;;;193.82;148.73;;;20.40;45.10;;;;;;4740612;55;21048;-36
2022/01/08 16:27:34;;;;;;;191.73;152.05;;;20.40;45.10;;;;;;4803709;55;21568;-37
2022/01/08 16:32:34;;;;;;;190.90;149.23;;;20.40;45.10;;;;;;4771678;55;21010;-36
2022/01/08 16:37:35;;;;;;;188.98;148.43;;;20.40;45.20;;;;;;4739373;55;21026;-35
2022/01/08 16:42:36;;;;;;;187.43;143.82;;;20.40;45.10;;;;;;4752643;55;21024;-32
2022/01/08 16:47:37;;;;;;;185.90;146.10;;;20.40;45.10;;;;;;4792650;55;21006;-37
2022/01/08 16:52:38;;;;;;;185.52;141.43;;;20.40;45.10;;;;;;4737778;59;21096;-37
2022/01/08 16:57:39;;;;;;;179.43;142.57;;;20.40;45.20;;;;;;4754223;55;21492;-36
2022/01/08 17:02:40;;;;;;;180.85;142.82;;;20.40;45.10;;;;;;4785888;55;21038;-36
2022/01/08 17:07:40;;;;;;;187.57;148.35;;;20.40;45.10;;;;;;4741793;55;21117;-35
2022/01/08 17:12:41;;;;;;;178.62;143.05;;;20.40;45.20;;;;;;4756260;55;21514;-33
2022/01/08 17:17:43;;;;;;;181.05;144.07;;;20.40;45.10;;;;;;4749575;55;21900;-27
2022/01/08 17:22:44;;;;;;;192.30;149.15;;;20.30;45.10;;;;;;4737839;59;21034;-34
2022/01/08 17:27:45;;;;;;;188.65;149.65;;;20.40;45.10;;;;;;4757071;55;22277;-36
2022/01/08 17:32:46;;;;;;;181.90;142.70;;;20.40;45.10;;;;;;4738233;59;21116;-36
2022/01/08 17:37:46;;;;;;;183.95;144.95;;;20.40;45.10;;;;;;4756171;55;22244;-36
2022/01/08 17:42:47;;;;;;;194.50;148.73;;;20.40;45.10;;;;;;4765176;55;21061;-36
2022/01/08 17:47:48;;;;;;;185.05;143.82;;;20.40;45.20;;;;;;4773924;55;21071;-31
2022/01/08 17:52:49;;;;;;;181.40;142.77;;;20.40;45.20;;;;;;4746596;55;21272;-35
2022/01/08 17:57:50;;;;;;;183.55;143.00;;;20.40;45.10;;;;;;4742371;55;21595;-37
2022/01/08 18:02:53;;;;;;;186.32;144.27;;;20.40;45.10;;;;;;4737823;59;21594;-35
2022/01/08 18:07:54;;;;;;;181.55;144.60;;;20.40;45.10;;;;;;4737229;59;21041;-34
2022/01/08 18:12:55;;;;;;;184.55;143.00;;;20.40;45.10;;;;;;4737464;55;21070;-37
2022/01/08 18:17:56;;;;;;;176.02;138.80;;;20.40;45.10;;;;;;4755308;55;21055;-37
2022/01/08 18:22:57;;;;;;;177.87;140.90;;;20.40;45.10;;;;;;4746573;55;21014;-37
2022/01/08 18:27:58;;;;;;;177.25;138.10;;;20.40;45.10;;;;;;4738186;55;21078;-36
2022/01/08 18:32:59;;;;;;;181.73;142.80;;;20.40;45.10;;;;;;4738453;56;20994;-36
2022/01/08 18:38:00;;;;;;;182.15;142.95;;;20.40;45.00;;;;;;4768568;55;21001;-33
2022/01/08 18:43:02;;;;;;;176.30;139.02;;;20.30;45.00;;;;;;4754998;55;21523;-33
2022/01/08 18:48:06;;;;;;;173.45;137.23;;;20.40;45.00;;;;;;4761759;55;21022;-34
2022/01/08 18:53:10;;;;;;;178.80;138.00;;;20.40;45.00;;;;;;4746185;55;21463;-36
2022/01/08 18:58:11;;;;;;;171.65;136.32;;;20.40;44.90;;;;;;4741033;55;21547;-37
2022/01/08 19:03:12;;;;;;;163.73;129.57;;;20.40;45.00;;;;;;4767521;55;21551;-33
2022/01/08 19:08:13;;;;;;;162.48;127.10;;;20.40;44.90;;;;;;4737099;59;21034;-32
2022/01/08 19:13:14;;;;;;;164.95;133.00;;;20.40;44.90;;;;;;4778544;55;21006;-34
2022/01/08 19:18:15;;;;;;;165.15;131.35;;;20.40;44.80;;;;;;4742747;55;21448;-32
2022/01/08 19:23:16;;;;;;;162.40;130.52;;;20.40;44.90;;;;;;4742732;55;21061;-37
2022/01/08 19:28:18;;;;;;;165.52;132.05;;;20.40;44.80;;;;;;4737241;59;21022;-34
2022/01/08 19:33:19;;;;;;;163.37;129.80;;;20.30;44.70;;;;;;4738533;55;21483;-35
2022/01/08 19:38:20;;;;;;;162.45;130.10;;;20.40;44.80;;;;;;4740517;55;21066;-30
2022/01/08 19:43:23;;;;;;;158.98;126.35;;;20.30;44.70;;;;;;4786292;55;21075;-32
2022/01/08 19:48:24;;;;;;;151.90;121.47;;;20.30;44.70;;;;;;4766067;55;20990;-31
2022/01/08 19:53:25;;;;;;;154.85;125.22;;;20.30;44.60;;;;;;4758036;55;21054;-35
2022/01/08 19:58:25;;;;;;;155.12;123.20;;;20.40;44.70;;;;;;4775620;55;21005;-35
2022/01/08 20:03:26;;;;;;;154.98;122.07;;;20.30;44.60;;;;;;4738528;59;21575;-34
2022/01/08 20:08:28;;;;;;;157.15;123.97;;;20.30;44.60;;;;;;4758208;55;21038;-35
2022/01/08 20:13:29;;;;;;;152.38;120.65;;;20.30;44.50;;;;;;4741924;55;21481;-35
2022/01/08 20:18:30;;;;;;;148.35;119.55;;;20.30;44.60;;;;;;4740308;55;20999;-34
2022/01/08 20:23:30;;;;;;;151.48;121.07;;;20.30;44.50;;;;;;4759409;55;21058;-36
2022/01/08 20:28:32;;;;;;;151.15;118.07;;;20.30;44.60;;;;;;4758957;55;21548;-36
2022/01/08 20:33:33;;;;;;;139.70;114.22;;;20.30;44.40;;;;;;4757940;55;21097;-34
2022/01/08 20:38:34;;;;;;;146.52;115.18;;;20.30;44.50;;;;;;4784593;55;21014;-35
2022/01/08 20:43:35;;;;;;;142.62;113.40;;;20.30;44.40;;;;;;4742520;55;21026;-35
2022/01/08 20:48:36;;;;;;;148.98;115.25;;;20.30;44.40;;;;;;4741428;55;21081;-35
2022/01/08 20:53:37;;;;;;;142.32;114.72;;;20.30;44.40;;;;;;4766149;55;21069;-35
2022/01/08 20:58:42;;;;;;;141.10;111.28;;;20.30;44.40;;;;;;4756708;55;21073;-35
2022/01/08 21:03:44;;;;;;;140.18;111.80;;;20.30;44.40;;;;;;4749260;55;21524;-38
2022/01/08 21:08:45;;;;;;;145.07;114.80;;;20.30;44.30;;;;;;4758123;55;21020;-33
2022/01/08 21:13:46;;;;;;;145.02;113.75;;;20.30;44.30;;;;;;4743260;55;21512;-34
2022/01/08 21:18:47;;;;;;;136.62;107.28;;;20.30;44.30;;;;;;4739664;55;21022;-36
2022/01/08 21:23:48;;;;;;;139.62;112.43;;;20.30;44.30;;;;;;4752537;55;21006;-31
2022/01/08 21:28:49;;;;;;;139.55;111.85;;;20.30;44.40;;;;;;4762953;55;21506;-33
2022/01/08 21:33:51;;;;;;;135.23;109.75;;;20.30;44.30;;;;;;4781391;55;21003;-35
2022/01/08 21:38:57;;;;;;;137.50;110.18;;;20.30;44.30;;;;;;4742784;55;21488;-35
2022/01/08 21:43:58;;;;;;;139.52;109.97;;;20.30;44.20;;;;;;4778715;55;21477;-36
2022/01/08 21:48:59;;;;;;;140.07;109.05;;;20.30;44.30;;;;;;4775758;55;21066;-35
2022/01/08 21:54:00;;;;;;;131.48;106.25;;;20.30;44.20;;;;;;4755179;55;22050;-34
2022/01/08 21:59:01;;;;;;;133.05;106.28;;;20.30;44.10;;;;;;4737866;59;21022;-35
2022/01/08 22:04:02;;;;;;;131.10;107.65;;;20.30;44.20;;;;;;4738358;59;21523;-36
2022/01/08 22:09:04;;;;;;;129.85;104.32;;;20.30;44.20;;;;;;4751302;55;21078;-33
2022/01/08 22:14:05;;;;;;;132.63;103.70;;;20.30;44.10;;;;;;4751889;55;20998;-36
2022/01/08 22:19:05;;;;;;;122.62;98.50;;;20.30;44.10;;;;;;4744460;55;21536;-32
2022/01/08 22:24:06;;;;;;;122.07;100.40;;;20.30;44.10;;;;;;4777209;55;21010;-37
2022/01/08 22:29:07;;;;;;;130.12;104.40;;;20.30;44.00;;;;;;4779631;55;21488;-36
2022/01/08 22:34:08;;;;;;;128.02;104.53;;;20.30;44.10;;;;;;4751957;55;21006;-37
2022/01/08 22:39:09;;;;;;;123.95;98.00;;;20.30;44.00;;;;;;4757753;55;20982;-35
2022/01/08 22:44:10;;;;;;;123.62;98.10;;;20.30;43.90;;;;;;4740213;55;21572;-38
2022/01/08 22:49:11;;;;;;;123.85;100.72;;;20.30;44.00;;;;;;4751976;55;21065;-31
2022/01/08 22:54:12;;;;;;;118.32;93.93;;;20.30;44.00;;;;;;4779819;55;21093;-33
2022/01/08 22:59:13;;;;;;;117.25;95.62;;;20.30;44.00;;;;;;4738802;59;21124;-34
2022/01/08 23:04:14;;;;;;;109.65;90.12;;;20.30;43.90;;;;;;4738185;59;21121;-31
2022/01/08 23:09:15;;;;;;;119.10;95.87;;;20.30;43.90;;;;;;4743332;55;21685;-34
2022/01/08 23:14:16;;;;;;;113.05;92.35;;;20.30;43.80;;;;;;4738276;59;21015;-36
2022/01/08 23:19:17;;;;;;;112.62;91.12;;;20.30;43.80;;;;;;4775301;55;21169;-36
2022/01/08 23:24:18;;;;;;;115.75;94.80;;;20.30;43.80;;;;;;4737914;59;21093;-34
2022/01/08 23:29:20;;;;;;;109.45;87.97;;;20.30;43.80;;;;;;4754540;55;21065;-36
2022/01/08 23:34:21;;;;;;;114.07;91.82;;;20.30;43.70;;;;;;4751441;55;21562;-36
2022/01/08 23:39:22;;;;;;;109.57;86.93;;;20.30;43.70;;;;;;4753602;55;21134;-33
2022/01/08 23:44:22;;;;;;;104.68;84.20;;;20.30;43.60;;;;;;4781676;55;21034;-36
2022/01/08 23:49:28;;;;;;;104.90;85.28;;;20.30;43.70;;;;;;4751876;55;21045;-36
2022/01/08 23:54:29;;;;;;;104.20;84.57;;;20.30;43.70;;;;;;4747335;55;21520;-36
2022/01/08 23:59:30;;;;;;;110.88;88.15;;;20.20;43.60;;;;;;4747765;55;21010;-34
